Rechercher aéroport 
image banner adimage banner adimage banner ad
image banner ad

PA22 - Hermitage

Situé à Sharon, United States

ICAO - PA22, IATA -

Données fournies par Airmate  

Information générale

Coordonnées: N41°12'5" W80°25'20"
Élévation : 1100 feet MSL.
Variation magnétique : -08° East
Voir autres Aéroports à Pennsylvania

Données opérationnelles

Special qualification required
Heure actuelle UTC:
Heure actuelle locale:
Météo à : KUCP - New Castle Muni ( 20 km )
METAR: KUCP 150656Z AUTO 29003KT 10SM CLR 14/13 A2991 RMK AO2 SLP140 T01440133
Voir NOTAMs / SUP AIP / TFR affectant cet aéroport [VIEW]
Fréquences de communication: [VIEW]

Pistes:

Identifiant RWYQFULongueur (ft)Largeur (ft)SurfaceLDA (ft)
18211065OTHER
36211065OTHER

Coordonnées de l'aéroport

Adresse: Sharon United States

Vue satellite de PA22